createdAt,value
2018-11-25T00:01:06.857Z,7.93
2018-11-25T00:03:39.605Z,7.95
2018-11-25T00:06:15.378Z,8.41
2018-11-25T00:08:47.367Z,8.34
2018-11-25T00:11:22.823Z,8.42
2018-11-25T00:13:53.344Z,8.54
2018-11-25T00:16:23.950Z,8.75
2018-11-25T00:18:54.465Z,8.45
2018-11-25T00:21:24.986Z,8.17
2018-11-25T00:23:57.755Z,8.53
2018-11-25T00:26:28.878Z,8.98
2018-11-25T00:29:01.921Z,8.52
2018-11-25T00:31:33.955Z,7.93
2018-11-25T00:34:09.414Z,7.94
2018-11-25T00:36:41.780Z,8.03
2018-11-25T00:39:12.600Z,7.99
2018-11-25T00:41:43.129Z,7.78
2018-11-25T00:44:13.674Z,7.76
2018-11-25T00:46:44.539Z,7.76
2018-11-25T00:49:17.801Z,8.05
2018-11-25T00:51:54.465Z,8.31
2018-11-25T00:54:26.698Z,6.49
2018-11-25T00:56:57.838Z,6.09
2018-11-25T00:59:32.089Z,6.11
2018-11-25T01:02:05.167Z,6.02
2018-11-25T01:04:39.734Z,6.33
2018-11-25T01:07:11.258Z,6.72
2018-11-25T01:09:45.088Z,6.86
2018-11-25T01:12:17.627Z,7.37
2018-11-25T01:14:51.979Z,7.88
2018-11-25T01:17:24.257Z,6.34
2018-11-25T01:19:54.822Z,6.51
2018-11-25T01:22:25.634Z,7.36
2018-11-25T01:24:58.729Z,7.92
2018-11-25T01:27:32.042Z,6.12
2018-11-25T01:30:07.223Z,5.86
2018-11-25T01:32:38.969Z,5.64
2018-11-25T01:37:57.777Z,5.09
2018-11-25T01:40:42.800Z,4.97
2018-11-25T01:43:15.603Z,4.96
2018-11-25T01:45:52.417Z,5.18
2018-11-25T01:48:24.912Z,5.42
2018-11-25T01:50:59.605Z,5.52
2018-11-25T01:53:35.036Z,5.26
2018-11-25T01:56:08.615Z,5.18
2018-11-25T01:58:41.011Z,4.93
2018-11-25T02:01:14.819Z,4.97
2018-11-25T02:03:48.522Z,4.87
2018-11-25T02:06:21.121Z,4.93
2018-11-25T02:08:53.601Z,5.08
2018-11-25T02:11:24.237Z,5.13
2018-11-25T02:13:55.437Z,5.01
2018-11-25T02:16:26.449Z,5.44
2018-11-25T02:18:59.181Z,6.00
2018-11-25T02:21:31.148Z,6.73
2018-11-25T02:24:04.170Z,6.50
2018-11-25T02:26:38.098Z,5.68
2018-11-25T02:29:09.185Z,5.50
2018-11-25T02:31:40.333Z,5.99
2018-11-25T02:34:12.218Z,7.13
2018-11-25T02:36:44.437Z,7.59
2018-11-25T02:39:17.453Z,7.82
2018-11-25T02:41:51.374Z,7.91
2018-11-25T02:44:24.266Z,8.30
2018-11-25T02:46:57.957Z,7.61
2018-11-25T02:49:31.271Z,6.94
2018-11-25T02:52:04.789Z,6.98
2018-11-25T02:54:37.379Z,6.40
2018-11-25T02:57:09.605Z,6.45
2018-11-25T02:59:40.993Z,7.28
2018-11-25T03:02:15.297Z,7.30
2018-11-25T03:04:48.814Z,7.56
2018-11-25T03:07:21.178Z,7.01
2018-11-25T03:09:55.161Z,6.44
2018-11-25T03:12:34.642Z,7.18
2018-11-25T03:15:06.123Z,7.60
2018-11-25T03:17:38.366Z,7.69
2018-11-25T03:20:13.604Z,7.93
2018-11-25T03:23:03.316Z,8.01
2018-11-25T03:25:36.297Z,7.80
2018-11-25T03:28:07.750Z,7.90
2018-11-25T03:30:40.297Z,8.05
2018-11-25T03:33:15.392Z,8.01
2018-11-25T03:36:03.403Z,8.14
2018-11-25T03:38:50.825Z,8.46
2018-11-25T03:41:22.698Z,7.82
2018-11-25T03:43:54.852Z,7.83
2018-11-25T03:46:25.829Z,8.37
2018-11-25T03:48:59.389Z,7.88
2018-11-25T03:51:32.463Z,7.75
2018-11-25T03:54:04.743Z,8.27
2018-11-25T03:56:37.411Z,8.48
2018-11-25T03:59:10.590Z,8.50
2018-11-25T04:01:41.975Z,8.39
2018-11-25T04:04:13.494Z,8.50
2018-11-25T04:06:46.690Z,7.96
2018-11-25T04:09:18.537Z,8.24
2018-11-25T04:11:52.618Z,8.51
2018-11-25T04:14:23.169Z,8.80
2018-11-25T04:16:56.509Z,8.62
2018-11-25T04:19:29.333Z,7.99
2018-11-25T04:21:59.994Z,7.38
2018-11-25T04:24:30.638Z,7.06
2018-11-25T04:27:03.810Z,6.38
2018-11-25T04:29:38.007Z,5.99
2018-11-25T04:32:10.775Z,5.92
2018-11-25T04:34:46.453Z,6.25
2018-11-25T04:37:17.021Z,7.42
2018-11-25T04:39:47.900Z,8.17
2018-11-25T04:42:21.142Z,8.70
2018-11-25T04:44:54.732Z,9.03
2018-11-25T04:47:27.866Z,8.59
2018-11-25T04:50:00.819Z,8.73
2018-11-25T04:52:34.002Z,8.71
2018-11-25T04:55:04.534Z,8.95
2018-11-25T04:57:37.673Z,9.28
2018-11-25T05:00:12.665Z,9.43
2018-11-25T05:02:54.205Z,9.24
2018-11-25T05:05:42.037Z,9.12
2018-11-25T05:08:13.049Z,8.60
2018-11-25T05:10:46.166Z,8.67
2018-11-25T05:13:18.872Z,9.04
2018-11-25T05:15:52.066Z,8.66
2018-11-25T05:18:22.900Z,8.21
2018-11-25T05:20:55.018Z,7.11
2018-11-25T05:23:40.654Z,7.98
2018-11-25T05:26:12.363Z,7.99
2018-11-25T05:28:45.821Z,8.08
2018-11-25T05:31:19.782Z,8.28
2018-11-25T05:33:52.854Z,7.91
2018-11-25T05:36:29.098Z,8.20
2018-11-25T05:39:02.003Z,8.36
2018-11-25T05:41:33.427Z,7.80
2018-11-25T05:44:05.953Z,7.85
2018-11-25T05:46:40.213Z,8.19
2018-11-25T05:49:12.874Z,8.39
2018-11-25T05:51:43.555Z,8.43
2018-11-25T05:54:17.033Z,8.14
2018-11-25T05:56:50.169Z,8.53
2018-11-25T05:59:37.978Z,8.05
2018-11-25T06:02:09.173Z,8.16
2018-11-25T06:04:44.967Z,8.10
2018-11-25T06:07:15.510Z,8.52
2018-11-25T06:09:45.729Z,8.72
2018-11-25T06:12:16.684Z,8.41
2018-11-25T06:14:49.206Z,8.29
2018-11-25T06:17:20.358Z,8.35
2018-11-25T06:19:53.167Z,8.49
2018-11-25T06:22:28.654Z,8.35
2018-11-25T06:24:59.352Z,8.36
2018-11-25T06:27:30.537Z,8.13
2018-11-25T06:30:04.073Z,7.82
2018-11-25T06:32:36.964Z,7.78
2018-11-25T06:35:35.447Z,7.91
2018-11-25T06:38:08.530Z,7.94
2018-11-25T06:40:41.514Z,7.84
2018-11-25T06:43:13.442Z,7.65
2018-11-25T06:45:45.194Z,7.43
2018-11-25T06:48:16.480Z,7.63
2018-11-25T06:50:48.436Z,7.71
2018-11-25T06:53:20.005Z,7.73
2018-11-25T06:55:52.566Z,7.78
2018-11-25T06:58:26.235Z,7.97
2018-11-25T07:00:59.578Z,7.90
2018-11-25T07:03:33.903Z,7.83
2018-11-25T07:06:08.619Z,7.84
2018-11-25T07:08:39.322Z,7.80
2018-11-25T07:11:12.762Z,7.67
2018-11-25T07:13:45.766Z,7.49
2018-11-25T07:16:16.447Z,7.66
2018-11-25T07:18:49.438Z,7.58
2018-11-25T07:21:22.429Z,7.61
2018-11-25T07:23:53.564Z,7.72
2018-11-25T07:26:25.653Z,7.73
2018-11-25T07:28:57.407Z,7.54
2018-11-25T07:31:27.763Z,7.55
2018-11-25T07:34:01.431Z,7.28
2018-11-25T07:36:41.397Z,7.21
2018-11-25T07:39:12.519Z,7.11
2018-11-25T07:41:44.019Z,7.18
2018-11-25T07:44:14.601Z,7.23
2018-11-25T07:46:47.549Z,7.11
2018-11-25T07:49:19.592Z,7.32
2018-11-25T07:51:52.579Z,7.42
2018-11-25T07:54:25.510Z,7.37
2018-11-25T07:56:59.854Z,7.26
2018-11-25T07:59:31.975Z,7.01
2018-11-25T08:02:02.497Z,7.02
2018-11-25T08:04:38.669Z,6.85
2018-11-25T08:07:10.818Z,6.78
2018-11-25T08:09:44.107Z,6.86
2018-11-25T08:12:15.591Z,6.87
2018-11-25T08:14:48.848Z,6.93
2018-11-25T08:17:20.291Z,7.06
2018-11-25T08:19:50.995Z,7.08
2018-11-25T08:22:23.653Z,7.14
2018-11-25T08:25:01.226Z,7.10
2018-11-25T08:27:34.996Z,7.03
2018-11-25T08:30:11.330Z,7.05
2018-11-25T08:33:01.585Z,6.89
2018-11-25T08:35:34.817Z,6.96
2018-11-25T08:38:07.702Z,7.32
2018-11-25T08:40:38.596Z,7.16
2018-11-25T08:43:09.145Z,7.31
2018-11-25T08:45:41.774Z,7.30
2018-11-25T08:48:13.050Z,7.24
2018-11-25T08:50:45.893Z,7.44
2018-11-25T08:53:18.858Z,7.52
2018-11-25T08:55:50.149Z,7.28
2018-11-25T08:58:21.927Z,7.12
2018-11-25T09:00:52.902Z,7.12
2018-11-25T09:03:25.140Z,7.19
2018-11-25T09:05:56.772Z,7.12
2018-11-25T09:08:27.435Z,7.08
2018-11-25T09:11:00.657Z,7.42
2018-11-25T09:13:31.442Z,7.74
2018-11-25T09:16:07.058Z,7.38
2018-11-25T09:18:39.066Z,7.35
2018-11-25T09:21:12.590Z,7.86
2018-11-25T09:23:44.058Z,8.20
2018-11-25T09:26:14.953Z,8.27
2018-11-25T09:28:45.609Z,7.58
2018-11-25T09:31:16.145Z,7.29
2018-11-25T09:33:50.116Z,7.25
2018-11-25T09:36:22.002Z,7.18
2018-11-25T09:38:53.343Z,7.21
2018-11-25T09:41:26.734Z,7.44
2018-11-25T09:43:59.426Z,7.57
2018-11-25T09:46:32.693Z,7.71
2018-11-25T09:49:07.682Z,7.66
2018-11-25T09:51:39.034Z,7.53
2018-11-25T09:54:11.209Z,7.40
2018-11-25T09:56:44.402Z,7.38
2018-11-25T09:59:16.291Z,7.69
2018-11-25T10:01:48.358Z,7.86
2018-11-25T10:04:18.891Z,8.15
2018-11-25T10:06:51.101Z,8.39
2018-11-25T10:09:21.921Z,8.49
2018-11-25T10:11:54.165Z,8.38
2018-11-25T10:14:25.314Z,8.33
2018-11-25T10:16:58.126Z,7.96
2018-11-25T10:19:29.403Z,8.07
2018-11-25T10:22:02.628Z,8.16
2018-11-25T10:24:35.555Z,8.17
2018-11-25T10:27:09.498Z,8.18
2018-11-25T10:29:40.090Z,8.19
2018-11-25T10:32:10.804Z,8.23
2018-11-25T10:34:49.298Z,8.08
2018-11-25T10:37:22.458Z,8.38
2018-11-25T10:39:53.022Z,8.43
2018-11-25T10:42:30.564Z,8.22
2018-11-25T10:45:04.017Z,8.28
2018-11-25T10:47:40.113Z,8.22
2018-11-25T10:50:15.818Z,8.51
2018-11-25T10:53:02.584Z,8.28
2018-11-25T10:55:35.771Z,8.55
2018-11-25T10:58:08.544Z,8.54
2018-11-25T11:00:54.426Z,8.58
2018-11-25T11:03:31.497Z,8.59
2018-11-25T11:06:09.746Z,8.54
2018-11-25T11:08:42.390Z,8.32
2018-11-25T11:11:13.574Z,8.41
2018-11-25T11:13:44.999Z,8.26
2018-11-25T11:16:16.593Z,8.64
2018-11-25T11:18:47.477Z,8.83
2018-11-25T11:21:20.442Z,8.65
2018-11-25T11:23:57.403Z,8.86
2018-11-25T11:26:30.411Z,8.67
2018-11-25T11:29:03.588Z,8.42
2018-11-25T11:31:34.911Z,8.48
2018-11-25T11:34:07.381Z,8.48
2018-11-25T11:36:40.910Z,8.62
2018-11-25T11:39:13.689Z,8.53
2018-11-25T11:41:44.875Z,8.50
2018-11-25T11:44:20.801Z,8.38
2018-11-25T11:46:51.708Z,8.19
2018-11-25T11:49:24.682Z,8.16
2018-11-25T11:51:58.738Z,8.38
2018-11-25T11:54:31.010Z,8.33
2018-11-25T11:57:02.883Z,8.68
2018-11-25T11:59:33.611Z,9.06
2018-11-25T12:02:06.384Z,9.32
2018-11-25T12:04:37.709Z,9.58
2018-11-25T12:07:09.541Z,9.08
2018-11-25T12:09:46.813Z,9.09
2018-11-25T12:12:20.038Z,8.86
2018-11-25T12:14:51.836Z,8.58
2018-11-25T12:17:25.640Z,8.34
2018-11-25T12:19:56.181Z,8.28
2018-11-25T12:22:26.430Z,8.25
2018-11-25T12:24:57.033Z,8.41
2018-11-25T12:27:30.894Z,8.53
2018-11-25T12:30:05.725Z,8.68
2018-11-25T12:32:36.846Z,8.68
2018-11-25T12:35:08.964Z,9.16
2018-11-25T12:37:41.031Z,8.71
2018-11-25T12:40:16.708Z,8.80
2018-11-25T12:43:14.613Z,8.75
2018-11-25T12:45:45.806Z,8.75
2018-11-25T12:48:31.926Z,8.15
2018-11-25T12:51:04.038Z,8.05
2018-11-25T12:53:35.842Z,8.40
2018-11-25T12:56:08.209Z,8.13
2018-11-25T12:58:41.451Z,8.02
2018-11-25T13:01:24.531Z,8.33
2018-11-25T13:03:56.625Z,8.14
2018-11-25T13:06:30.834Z,8.34
2018-11-25T13:09:04.889Z,8.22
2018-11-25T13:11:37.165Z,8.39
2018-11-25T13:14:08.155Z,8.39
2018-11-25T13:16:41.369Z,8.66
2018-11-25T13:19:13.683Z,8.61
2018-11-25T13:21:44.972Z,8.89
2018-11-25T13:24:17.709Z,8.46
2018-11-25T13:26:51.636Z,8.39
2018-11-25T13:29:22.157Z,8.36
2018-11-25T13:31:55.082Z,8.37
2018-11-25T13:34:28.097Z,8.29
2018-11-25T13:36:59.426Z,8.19
2018-11-25T13:39:32.353Z,8.09
2018-11-25T13:42:04.098Z,8.26
2018-11-25T13:44:43.204Z,8.23
2018-11-25T13:47:14.771Z,8.14
2018-11-25T13:49:51.981Z,8.06
2018-11-25T13:52:24.881Z,8.00
2018-11-25T13:54:55.162Z,8.23
2018-11-25T13:57:26.170Z,8.02
2018-11-25T13:59:57.069Z,7.94
2018-11-25T14:02:30.030Z,8.05
2018-11-25T14:05:03.632Z,7.91
2018-11-25T14:07:36.121Z,7.79
2018-11-25T14:10:13.658Z,7.54
2018-11-25T14:12:54.376Z,7.82
2018-11-25T14:15:27.827Z,8.09
2018-11-25T14:17:59.143Z,8.21
2018-11-25T14:20:29.450Z,8.55
2018-11-25T14:23:00.167Z,8.56
2018-11-25T14:25:34.758Z,8.34
2018-11-25T14:28:09.837Z,8.60
2018-11-25T14:30:41.549Z,8.69
2018-11-25T14:33:13.356Z,8.97
2018-11-25T14:35:53.679Z,9.68
2018-11-25T14:38:27.125Z,9.92
2018-11-25T14:41:00.717Z,10.22
2018-11-25T14:43:33.602Z,10.38
2018-11-25T14:46:03.964Z,10.62
2018-11-25T14:48:34.501Z,10.88
2018-11-25T14:51:07.712Z,10.23
2018-11-25T14:53:38.535Z,10.29
2018-11-25T14:56:11.327Z,9.90
2018-11-25T14:58:46.539Z,10.20
2018-11-25T15:01:20.826Z,10.35
2018-11-25T15:03:53.375Z,10.37
2018-11-25T15:06:29.483Z,10.23
2018-11-25T15:09:06.559Z,10.25
2018-11-25T15:11:37.808Z,10.48
2018-11-25T15:14:08.989Z,10.69
2018-11-25T15:16:41.527Z,10.40
2018-11-25T15:19:13.687Z,10.31
2018-11-25T15:21:49.415Z,10.50
2018-11-25T15:24:27.859Z,10.66
2018-11-25T15:27:00.742Z,10.58
2018-11-25T15:29:33.695Z,10.64
2018-11-25T15:32:05.332Z,10.92
2018-11-25T15:34:43.453Z,10.91
2018-11-25T15:37:14.008Z,10.72
2018-11-25T15:39:44.986Z,10.77
2018-11-25T15:42:16.789Z,10.55
2018-11-25T15:44:47.641Z,10.50
2018-11-25T15:47:22.808Z,10.69
2018-11-25T15:49:55.014Z,10.68
2018-11-25T15:52:28.017Z,10.61
2018-11-25T15:54:58.257Z,10.53
2018-11-25T15:57:29.009Z,10.51
2018-11-25T16:00:02.036Z,10.87
2018-11-25T16:02:35.026Z,10.80
2018-11-25T16:05:07.769Z,10.78
2018-11-25T16:07:39.822Z,10.87
2018-11-25T16:10:13.917Z,10.10
2018-11-25T16:12:57.255Z,10.13
2018-11-25T16:15:36.741Z,9.83
2018-11-25T16:18:10.092Z,9.03
2018-11-25T16:20:42.517Z,8.67
2018-11-25T16:23:13.691Z,9.01
2018-11-25T16:25:54.968Z,9.01
2018-11-25T16:28:34.714Z,8.66
2018-11-25T16:31:18.652Z,8.45
2018-11-25T16:33:51.129Z,7.99
2018-11-25T16:36:24.966Z,8.38
2018-11-25T16:39:02.172Z,8.18
2018-11-25T16:41:34.089Z,8.17
2018-11-25T16:44:04.669Z,8.14
2018-11-25T16:46:35.273Z,8.54
2018-11-25T16:49:08.993Z,8.09
2018-11-25T16:51:41.394Z,7.73
2018-11-25T16:54:14.032Z,7.76
2018-11-25T16:56:44.772Z,8.05
2018-11-25T16:59:16.963Z,7.93
2018-11-25T17:01:51.913Z,8.24
2018-11-25T17:04:22.638Z,8.24
2018-11-25T17:07:04.235Z,8.26
2018-11-25T17:09:35.375Z,8.32
2018-11-25T17:12:08.395Z,8.09
2018-11-25T17:14:39.254Z,7.67
2018-11-25T17:17:13.173Z,7.59
2018-11-25T17:19:45.344Z,7.33
2018-11-25T17:22:20.109Z,7.53
2018-11-25T17:25:01.303Z,7.73
2018-11-25T17:27:35.538Z,7.99
2018-11-25T17:30:14.674Z,8.20
2018-11-25T17:32:49.205Z,8.27
2018-11-25T17:35:28.279Z,7.85
2018-11-25T17:38:01.898Z,7.76
2018-11-25T17:40:36.484Z,7.67
2018-11-25T17:43:09.757Z,8.35
2018-11-25T17:45:40.379Z,7.91
2018-11-25T17:48:11.300Z,7.70
2018-11-25T17:50:47.140Z,7.80
2018-11-25T17:53:20.841Z,7.89
2018-11-25T17:55:51.591Z,7.99
2018-11-25T17:58:22.362Z,7.94
2018-11-25T18:01:00.185Z,7.86
2018-11-25T18:03:32.517Z,7.65
2018-11-25T18:06:06.312Z,7.64
2018-11-25T18:08:38.494Z,7.58
2018-11-25T18:11:12.534Z,7.53
2018-11-25T18:13:45.280Z,7.50
2018-11-25T18:16:18.269Z,7.60
2018-11-25T18:18:52.303Z,7.73
2018-11-25T18:21:26.073Z,7.78
2018-11-25T18:24:01.510Z,8.12
2018-11-25T18:26:34.754Z,8.48
2018-11-25T18:29:05.970Z,8.21
2018-11-25T18:31:38.457Z,8.29
2018-11-25T18:34:17.996Z,7.79
2018-11-25T18:36:50.512Z,8.04
2018-11-25T18:39:21.523Z,7.47
2018-11-25T18:41:56.387Z,7.40
2018-11-25T18:44:29.002Z,8.19
2018-11-25T18:47:00.893Z,8.59
2018-11-25T18:49:32.008Z,8.22
2018-11-25T18:52:05.319Z,7.93
2018-11-25T18:54:45.682Z,7.73
2018-11-25T18:57:20.490Z,7.78
2018-11-25T18:59:55.282Z,7.49
2018-11-25T19:02:35.115Z,7.27
2018-11-25T19:05:08.658Z,7.39
2018-11-25T19:07:40.334Z,7.96
2018-11-25T19:10:23.503Z,7.70
2018-11-25T19:12:58.754Z,7.81
2018-11-25T19:15:34.757Z,7.93
2018-11-25T19:20:46.069Z,7.79
2018-11-25T19:23:19.166Z,7.98
2018-11-25T19:26:00.668Z,7.78
2018-11-25T19:28:33.508Z,7.67
2018-11-25T19:31:12.869Z,7.64
2018-11-25T19:33:44.082Z,7.82
2018-11-25T19:36:14.976Z,7.60
2018-11-25T19:38:47.602Z,7.64
2018-11-25T19:41:20.754Z,7.41
2018-11-25T19:43:52.043Z,7.50
2018-11-25T19:46:24.939Z,7.11
2018-11-25T19:48:59.278Z,7.14
2018-11-25T19:51:35.190Z,6.96
2018-11-25T19:54:11.521Z,6.86
2018-11-25T19:56:52.948Z,7.09
2018-11-25T19:59:25.933Z,6.92
2018-11-25T20:01:57.065Z,6.88
2018-11-25T20:04:29.204Z,6.87
2018-11-25T20:07:01.236Z,6.86
2018-11-25T20:09:34.706Z,7.30
2018-11-25T20:12:06.962Z,7.66
2018-11-25T20:14:39.364Z,7.37
2018-11-25T20:17:17.717Z,7.28
2018-11-25T20:19:51.042Z,7.28
2018-11-25T20:22:25.548Z,7.32
2018-11-25T20:24:58.322Z,7.27
2018-11-25T20:27:34.506Z,7.32
2018-11-25T20:30:13.828Z,7.28
2018-11-25T20:33:02.272Z,7.24
2018-11-25T20:35:34.152Z,7.39
2018-11-25T20:38:30.831Z,7.04
2018-11-25T20:41:04.146Z,7.03
2018-11-25T20:43:38.022Z,6.87
2018-11-25T20:46:14.771Z,6.99
2018-11-25T20:48:52.233Z,7.07
2018-11-25T20:51:28.424Z,7.14
2018-11-25T20:54:00.241Z,7.06
2018-11-25T20:56:32.083Z,6.96
2018-11-25T20:59:03.182Z,6.99
2018-11-25T21:01:36.173Z,6.92
2018-11-25T21:04:09.260Z,6.93
2018-11-25T21:06:42.604Z,7.10
2018-11-25T21:09:13.274Z,7.16
2018-11-25T21:11:46.081Z,7.19
2018-11-25T21:14:17.143Z,7.24
2018-11-25T21:16:50.200Z,7.12
2018-11-25T21:19:27.242Z,7.15
2018-11-25T21:21:59.568Z,7.27
2018-11-25T21:24:30.479Z,7.29
2018-11-25T21:27:03.409Z,7.47
2018-11-25T21:29:34.590Z,7.44
2018-11-25T21:32:07.454Z,7.67
2018-11-25T21:34:40.384Z,7.55
2018-11-25T21:37:13.370Z,7.47
2018-11-25T21:39:46.519Z,7.24
2018-11-25T21:42:17.688Z,7.28
2018-11-25T21:44:52.176Z,7.12
2018-11-25T21:47:24.413Z,6.88
2018-11-25T21:49:57.386Z,6.84
2018-11-25T21:52:31.149Z,7.03
2018-11-25T21:55:04.836Z,6.85
2018-11-25T21:57:38.514Z,6.98
2018-11-25T22:00:31.329Z,7.00
2018-11-25T22:03:02.373Z,6.86
2018-11-25T22:05:36.158Z,6.86
2018-11-25T22:08:08.736Z,6.92
2018-11-25T22:10:42.649Z,7.16
2018-11-25T22:13:17.214Z,7.10
2018-11-25T22:15:48.474Z,7.02
2018-11-25T22:18:20.526Z,7.06
2018-11-25T22:20:52.564Z,7.10
2018-11-25T22:23:23.294Z,6.91
2018-11-25T22:26:05.241Z,6.89
2018-11-25T22:28:40.109Z,7.00
2018-11-25T22:31:12.483Z,7.23
2018-11-25T22:33:49.379Z,7.19
2018-11-25T22:36:21.647Z,7.07
2018-11-25T22:38:53.153Z,7.00
2018-11-25T22:41:26.001Z,6.86
2018-11-25T22:43:56.517Z,6.95
2018-11-25T22:46:27.694Z,6.68
2018-11-25T22:49:00.057Z,6.78
2018-11-25T22:51:30.770Z,7.01
2018-11-25T22:54:05.886Z,6.79
2018-11-25T22:56:38.595Z,6.82
2018-11-25T22:59:10.908Z,6.88
2018-11-25T23:01:43.776Z,6.68
2018-11-25T23:04:25.712Z,6.79
2018-11-25T23:07:03.064Z,6.86
2018-11-25T23:09:33.660Z,6.71
2018-11-25T23:12:07.093Z,6.77
2018-11-25T23:14:39.091Z,6.80
2018-11-25T23:17:11.073Z,6.80
2018-11-25T23:19:41.789Z,6.74
2018-11-25T23:22:17.745Z,6.81
2018-11-25T23:24:48.270Z,6.70
2018-11-25T23:27:18.900Z,6.85
2018-11-25T23:29:52.033Z,6.70
2018-11-25T23:32:25.006Z,6.55
2018-11-25T23:34:56.672Z,6.49
2018-11-25T23:37:32.842Z,6.63
2018-11-25T23:40:05.818Z,6.85
2018-11-25T23:42:38.814Z,6.71
2018-11-25T23:45:13.905Z,6.63
2018-11-25T23:47:56.766Z,6.81
2018-11-25T23:50:31.596Z,6.87
2018-11-25T23:53:07.202Z,6.82
2018-11-25T23:55:39.816Z,6.76
2018-11-25T23:58:13.949Z,6.67
